createdAt,value
2019-05-02T00:00:59.189Z,999.90
2019-05-02T00:03:36.003Z,999.90
2019-05-02T00:06:07.438Z,999.90
2019-05-02T00:08:40.041Z,999.90
2019-05-02T00:11:13.296Z,999.90
2019-05-02T00:13:44.998Z,999.90
2019-05-02T00:16:16.924Z,999.90
2019-05-02T00:18:48.482Z,999.90
2019-05-02T00:21:20.507Z,999.90
2019-05-02T00:23:52.077Z,999.90
2019-05-02T00:26:24.838Z,999.90
2019-05-02T00:28:57.814Z,999.90
2019-05-02T00:31:30.207Z,999.90
2019-05-02T00:34:02.056Z,999.90
2019-05-02T00:36:33.830Z,999.90
2019-05-02T00:39:09.635Z,999.90
2019-05-02T00:41:41.100Z,999.90
2019-05-02T00:44:12.881Z,999.90
2019-05-02T00:46:44.746Z,999.90
2019-05-02T00:49:17.134Z,999.90
2019-05-02T00:51:49.210Z,999.90
2019-05-02T00:54:24.169Z,999.90
2019-05-02T00:56:54.468Z,999.90
2019-05-02T00:59:26.416Z,999.90
2019-05-02T01:02:18.511Z,999.90
2019-05-02T01:04:51.005Z,999.90
2019-05-02T01:07:25.436Z,999.90
2019-05-02T01:09:56.245Z,999.90
2019-05-02T01:12:27.929Z,999.90
2019-05-02T01:15:03.231Z,999.90
2019-05-02T01:17:33.141Z,999.90
2019-05-02T01:20:05.371Z,999.90
2019-05-02T01:22:37.081Z,999.90
2019-05-02T01:25:15.028Z,999.90
2019-05-02T01:28:04.549Z,999.90
2019-05-02T01:31:02.261Z,999.90
2019-05-02T01:33:58.782Z,999.90
2019-05-02T01:36:44.787Z,999.90
2019-05-02T01:39:16.514Z,999.90
2019-05-02T01:41:48.367Z,999.90
2019-05-02T01:44:20.042Z,999.90
2019-05-02T01:46:53.961Z,999.90
2019-05-02T01:49:24.891Z,999.90
2019-05-02T01:51:56.632Z,999.90
2019-05-02T01:54:28.337Z,999.90
2019-05-02T01:57:04.023Z,999.90
2019-05-02T01:59:35.138Z,999.90
2019-05-02T02:02:07.367Z,999.90
2019-05-02T02:04:38.970Z,999.90
2019-05-02T02:07:14.977Z,999.90
2019-05-02T02:09:46.799Z,999.90
2019-05-02T02:12:19.682Z,999.90
2019-05-02T02:14:53.536Z,999.90
2019-05-02T02:17:24.892Z,999.90
2019-05-02T02:19:59.310Z,999.90
2019-05-02T02:22:50.031Z,999.90
2019-05-02T02:25:38.787Z,999.90
2019-05-02T02:28:10.515Z,999.90
2019-05-02T02:30:42.641Z,999.90
2019-05-02T02:33:14.224Z,999.90
2019-05-02T02:35:50.340Z,999.90
2019-05-02T02:38:19.552Z,999.90
2019-05-02T02:40:52.203Z,999.90
2019-05-02T02:43:34.294Z,999.90
2019-05-02T02:46:13.165Z,999.90
2019-05-02T02:48:44.743Z,999.90
2019-05-02T02:51:24.081Z,999.90
2019-05-02T02:53:50.189Z,999.90
2019-05-02T02:56:22.624Z,999.90
2019-05-02T02:58:55.368Z,834.73
2019-05-02T03:01:29.446Z,42.87
2019-05-02T03:04:08.604Z,42.10
2019-05-02T03:06:38.269Z,41.50
2019-05-02T03:09:08.770Z,41.60
2019-05-02T03:12:02.085Z,40.60
2019-05-02T03:14:33.683Z,41.07
2019-05-02T03:17:06.197Z,42.40
2019-05-02T03:19:37.815Z,41.87
2019-05-02T03:22:09.727Z,40.53
2019-05-02T03:24:44.161Z,40.23
2019-05-02T03:27:16.509Z,40.05
2019-05-02T03:35:42.396Z,38.50
2019-05-02T03:38:09.112Z,38.90
2019-05-02T03:40:41.382Z,38.97
2019-05-02T03:43:19.283Z,39.03
2019-05-02T03:45:47.846Z,36.43
2019-05-02T03:48:25.830Z,38.87
2019-05-02T03:50:53.644Z,37.63
2019-05-02T03:53:27.518Z,38.27
2019-05-02T03:56:10.556Z,37.17
2019-05-02T03:58:33.975Z,36.33
2019-05-02T04:01:05.610Z,35.97
2019-05-02T04:03:40.998Z,34.20
2019-05-02T04:06:13.763Z,34.83
2019-05-02T04:08:46.797Z,32.67
2019-05-02T04:11:38.961Z,32.57
2019-05-02T04:14:15.202Z,33.03
2019-05-02T04:16:40.527Z,29.67
2019-05-02T04:19:13.479Z,28.63
2019-05-02T04:21:45.335Z,27.77
2019-05-02T04:24:16.986Z,27.33
2019-05-02T04:26:53.910Z,29.43
2019-05-02T04:29:24.407Z,29.23
2019-05-02T04:31:57.952Z,26.77
2019-05-02T04:34:29.663Z,25.60
2019-05-02T04:37:04.072Z,26.70
2019-05-02T04:39:34.595Z,24.67
2019-05-02T04:42:13.256Z,25.80
2019-05-02T04:44:52.731Z,26.13
2019-05-02T04:47:17.432Z,24.67
2019-05-02T04:49:49.117Z,25.37
2019-05-02T04:52:21.049Z,23.80
2019-05-02T04:55:08.011Z,20.67
